createdAt,value
2024-05-09T00:02:02.861Z,99478.91
2024-05-09T00:07:24.770Z,99472.22
2024-05-09T00:12:46.644Z,99469.91
2024-05-09T00:18:08.876Z,99475.91
2024-05-09T00:23:31.007Z,99461.41
2024-05-09T00:28:53.036Z,99459.72
2024-05-09T00:34:15.009Z,99455.81
2024-05-09T00:39:37.459Z,99459.13
2024-05-09T00:44:59.369Z,99451.50
2024-05-09T00:50:29.612Z,99454.41
2024-05-09T00:55:58.193Z,99445.94
2024-05-09T01:01:23.549Z,99443.66
2024-05-09T01:06:45.464Z,99450.31
2024-05-09T01:12:07.429Z,99447.19
2024-05-09T01:17:29.720Z,99443.88
2024-05-09T01:22:54.103Z,99441.38
2024-05-09T01:28:16.309Z,99438.28
2024-05-09T01:33:38.783Z,99436.47
2024-05-09T01:39:01.001Z,99440.88
2024-05-09T01:44:23.022Z,99446.25
2024-05-09T01:49:45.068Z,99450.97
2024-05-09T01:55:07.297Z,99440.00
2024-05-09T02:00:38.159Z,99448.53
2024-05-09T02:06:03.312Z,99450.47
2024-05-09T02:11:25.453Z,99459.69
2024-05-09T02:16:47.858Z,99453.03
2024-05-09T02:22:09.762Z,99454.88
2024-05-09T02:27:31.658Z,99460.22
2024-05-09T02:32:53.696Z,99444.53
2024-05-09T02:38:15.712Z,99442.97
2024-05-09T02:43:37.605Z,99446.38
2024-05-09T02:48:59.607Z,99460.72
2024-05-09T02:54:21.553Z,99464.66
2024-05-09T02:59:43.627Z,99465.69
2024-05-09T03:05:05.747Z,99467.72
2024-05-09T03:10:29.251Z,99463.88
2024-05-09T03:15:59.792Z,99457.84
2024-05-09T03:21:21.877Z,99461.63
2024-05-09T03:26:43.849Z,99465.84
2024-05-09T03:32:06.102Z,99465.50
2024-05-09T03:37:28.218Z,99458.34
2024-05-09T03:42:50.337Z,99453.06
2024-05-09T03:48:12.759Z,99454.09
2024-05-09T03:53:35.055Z,99444.84
2024-05-09T03:58:57.816Z,99455.50
2024-05-09T04:04:19.765Z,99449.53
2024-05-09T04:09:41.719Z,99466.66
2024-05-09T04:15:03.899Z,99462.00
2024-05-09T04:20:36.004Z,99464.56
2024-05-09T04:26:04.296Z,99458.38
2024-05-09T04:31:26.444Z,99459.31
2024-05-09T04:36:48.343Z,99457.38
2024-05-09T04:42:10.316Z,99455.63
2024-05-09T04:47:32.543Z,99457.28
2024-05-09T04:52:54.583Z,99466.84
2024-05-09T04:58:16.512Z,99469.25
2024-05-09T05:03:38.761Z,99474.19
2024-05-09T05:09:00.845Z,99476.41
2024-05-09T05:14:22.853Z,99470.81
2024-05-09T05:19:45.052Z,99477.25
2024-05-09T05:25:07.208Z,99480.13
2024-05-09T05:30:34.308Z,99482.31
2024-05-09T05:35:57.317Z,99474.72
2024-05-09T05:41:19.315Z,99480.81
2024-05-09T05:46:41.465Z,99483.47
2024-05-09T05:52:03.489Z,99482.84
2024-05-09T05:57:25.397Z,99482.69
2024-05-09T06:02:47.376Z,99483.56
2024-05-09T06:08:09.514Z,99486.06
2024-05-09T06:13:31.580Z,99495.16
2024-05-09T06:18:53.661Z,99493.00
2024-05-09T06:24:15.818Z,99489.19
2024-05-09T06:29:40.658Z,99483.28
2024-05-09T06:35:02.648Z,99481.22
2024-05-09T06:40:29.429Z,99482.50
2024-05-09T06:45:57.394Z,99484.47
2024-05-09T06:51:19.339Z,99482.94
2024-05-09T06:56:41.346Z,99492.50
2024-05-09T07:02:06.962Z,99495.97
2024-05-09T07:07:28.910Z,99486.94
2024-05-09T07:12:50.774Z,99481.16
2024-05-09T07:18:17.187Z,99481.19
2024-05-09T07:23:41.004Z,99482.09
2024-05-09T07:29:03.864Z,99475.34
2024-05-09T07:34:25.906Z,99477.69
2024-05-09T07:39:47.975Z,99471.41
2024-05-09T07:45:24.180Z,99470.00
2024-05-09T07:56:17.680Z,99458.69
2024-05-09T08:01:40.072Z,99451.16
2024-05-09T08:07:02.050Z,99450.94
2024-05-09T08:12:23.998Z,99447.81
2024-05-09T08:17:45.942Z,99439.78
2024-05-09T08:23:08.143Z,99438.16
2024-05-09T08:28:30.137Z,99428.25
2024-05-09T08:33:52.347Z,99424.91
2024-05-09T08:39:14.441Z,99423.00
2024-05-09T08:44:37.148Z,99419.31
2024-05-09T08:50:02.137Z,99421.56
2024-05-09T08:55:25.468Z,99419.31
2024-05-09T09:00:47.952Z,99417.44
2024-05-09T09:06:14.580Z,99410.81
2024-05-09T09:11:36.531Z,99408.75
2024-05-09T09:16:58.471Z,99412.84
2024-05-09T09:22:21.701Z,99399.41
2024-05-09T09:27:44.000Z,99400.81
2024-05-09T09:33:06.766Z,99394.41
2024-05-09T09:38:31.245Z,99389.75
2024-05-09T09:43:53.979Z,99385.25
2024-05-09T09:49:17.105Z,99385.09
2024-05-09T09:54:39.637Z,99376.94
2024-05-09T10:00:01.827Z,99375.59
2024-05-09T10:05:24.431Z,99366.22
2024-05-09T10:10:47.952Z,99366.09
2024-05-09T10:16:11.230Z,99353.03
2024-05-09T10:21:33.403Z,99354.81
2024-05-09T10:26:56.049Z,99348.94
2024-05-09T10:32:26.742Z,99355.06
2024-05-09T10:37:50.710Z,99342.59
2024-05-09T10:43:19.631Z,99333.75
2024-05-09T10:48:43.210Z,99329.63
2024-05-09T10:54:05.206Z,99332.38
2024-05-09T10:59:33.306Z,99333.72
2024-05-09T11:04:55.386Z,99321.09
2024-05-09T11:10:24.923Z,99318.69
2024-05-09T11:15:53.905Z,99306.59
2024-05-09T11:21:15.832Z,99298.84
2024-05-09T11:26:40.987Z,99300.50
2024-05-09T11:32:03.020Z,99298.56
2024-05-09T11:37:25.103Z,99300.06
2024-05-09T11:42:48.754Z,99302.63
2024-05-09T11:48:12.816Z,99289.97
2024-05-09T11:53:34.737Z,99282.09
2024-05-09T11:58:56.657Z,99274.56
2024-05-09T12:04:18.938Z,99277.47
2024-05-09T12:09:41.468Z,99269.53
2024-05-09T12:15:03.570Z,99286.03
2024-05-09T12:20:33.065Z,99262.69
2024-05-09T12:25:59.173Z,99250.75
2024-05-09T12:31:21.126Z,99242.25
2024-05-09T12:36:43.494Z,99256.75
2024-05-09T12:42:05.610Z,99239.25
2024-05-09T12:47:27.840Z,99235.41
2024-05-09T12:52:49.837Z,99233.03
2024-05-09T12:58:12.250Z,99235.38
2024-05-09T13:03:34.463Z,99231.53
2024-05-09T13:08:56.675Z,99222.72
2024-05-09T13:14:18.608Z,99210.19
2024-05-09T13:19:40.479Z,99198.78
2024-05-09T13:25:02.494Z,99198.19
2024-05-09T13:30:30.046Z,99191.88
2024-05-09T13:36:00.425Z,99195.00
2024-05-09T13:41:22.450Z,99186.53
2024-05-09T13:46:44.485Z,99182.78
2024-05-09T13:52:06.602Z,99172.53
2024-05-09T13:57:28.695Z,99165.66
2024-05-09T14:02:50.634Z,99162.28
2024-05-09T14:08:15.127Z,99172.34
2024-05-09T14:13:37.156Z,99144.31
2024-05-09T14:18:59.719Z,99143.50
2024-05-09T14:24:21.685Z,99147.97
2024-05-09T14:29:43.647Z,99142.84
2024-05-09T14:35:06.057Z,99136.94
2024-05-09T14:40:38.797Z,99134.75
2024-05-09T14:46:04.875Z,99126.94
2024-05-09T14:51:26.774Z,99119.72
2024-05-09T14:56:48.897Z,99112.78
2024-05-09T15:02:11.100Z,99120.81
2024-05-09T15:07:34.085Z,99116.19
2024-05-09T15:12:56.024Z,99106.81
2024-05-09T15:18:18.284Z,99112.69
2024-05-09T15:23:40.498Z,99104.16
2024-05-09T15:29:02.537Z,99095.88
2024-05-09T15:34:24.477Z,99090.19
2024-05-09T15:39:46.388Z,99083.06
2024-05-09T15:45:08.263Z,99079.78
2024-05-09T15:50:37.127Z,99087.66
2024-05-09T15:56:02.366Z,99071.63
2024-05-09T16:01:24.529Z,99069.44
2024-05-09T16:06:47.977Z,99068.59
2024-05-09T16:12:09.903Z,99071.25
2024-05-09T16:17:31.956Z,99069.34
2024-05-09T16:22:54.379Z,99061.94
2024-05-09T16:28:18.672Z,99059.69
2024-05-09T16:33:40.985Z,99065.63
2024-05-09T16:39:03.112Z,99068.44
2024-05-09T16:44:25.108Z,99071.84
2024-05-09T16:49:47.225Z,99068.53
2024-05-09T16:55:09.207Z,99068.34
2024-05-09T17:00:39.514Z,99072.72
2024-05-09T17:06:06.330Z,99078.09
2024-05-09T17:11:28.242Z,99074.94
2024-05-09T17:16:50.238Z,99067.16
2024-05-09T17:22:12.566Z,99071.63
2024-05-09T17:27:34.729Z,99078.22
2024-05-09T17:32:56.731Z,99081.97
2024-05-09T17:38:19.483Z,99090.94
2024-05-09T17:43:41.399Z,99089.69
2024-05-09T17:49:03.821Z,99086.75
2024-05-09T17:54:25.900Z,99095.53
2024-05-09T17:59:49.903Z,99095.06
2024-05-09T18:05:11.886Z,99098.06
2024-05-09T18:10:37.962Z,99104.72
2024-05-09T18:16:02.014Z,99094.59
2024-05-09T18:21:24.421Z,99105.06
2024-05-09T18:26:46.426Z,99109.69
2024-05-09T18:32:08.590Z,99107.31
2024-05-09T18:37:30.586Z,99110.03
2024-05-09T18:42:52.629Z,99117.44
2024-05-09T18:48:17.403Z,99118.00
2024-05-09T18:53:39.874Z,99125.91
2024-05-09T18:59:03.387Z,99130.84
2024-05-09T19:04:25.601Z,99141.06
2024-05-09T19:09:47.887Z,99141.06
2024-05-09T19:15:09.826Z,99157.94
2024-05-09T19:20:34.663Z,99167.38
2024-05-09T19:25:58.078Z,99171.69
2024-05-09T19:31:20.072Z,99173.69
2024-05-09T19:36:42.216Z,99179.56
2024-05-09T19:42:05.145Z,99183.78
2024-05-09T19:47:27.306Z,99177.78
2024-05-09T19:52:49.361Z,99184.97
2024-05-09T19:58:12.483Z,99187.78
2024-05-09T20:03:37.413Z,99188.53
2024-05-09T20:08:59.650Z,99187.44
2024-05-09T20:14:22.334Z,99183.09
2024-05-09T20:19:44.470Z,99184.44
2024-05-09T20:25:07.018Z,99187.41
2024-05-09T20:30:32.792Z,99188.31
2024-05-09T20:36:01.606Z,99186.47
2024-05-09T20:41:24.123Z,99186.53
2024-05-09T20:46:46.072Z,99188.16
2024-05-09T20:52:08.205Z,99183.38
2024-05-09T20:57:30.509Z,99187.13
2024-05-09T21:02:52.544Z,99185.03
2024-05-09T21:08:14.560Z,99180.19
2024-05-09T21:13:36.490Z,99187.25
2024-05-09T21:18:58.412Z,99178.34
2024-05-09T21:24:20.349Z,99188.06
2024-05-09T21:29:42.394Z,99185.59
2024-05-09T21:35:05.285Z,99181.50
2024-05-09T21:40:33.926Z,99177.56
2024-05-09T21:45:57.781Z,99175.38
2024-05-09T21:51:19.720Z,99169.47
2024-05-09T21:56:41.881Z,99169.81
2024-05-09T22:02:04.342Z,99169.53
2024-05-09T22:07:26.457Z,99177.00
2024-05-09T22:12:48.446Z,99169.94
2024-05-09T22:18:11.340Z,99174.66
2024-05-09T22:23:33.762Z,99170.63
2024-05-09T22:28:55.706Z,99175.81
2024-05-09T22:34:17.730Z,99179.28
2024-05-09T22:39:39.749Z,99175.41
2024-05-09T22:45:01.723Z,99183.06
2024-05-09T22:50:26.992Z,99179.50
2024-05-09T22:55:53.484Z,99189.81
2024-05-09T23:01:15.962Z,99180.84
2024-05-09T23:06:40.874Z,99188.63
2024-05-09T23:12:02.891Z,99188.28
2024-05-09T23:17:24.847Z,99180.44
2024-05-09T23:22:46.755Z,99184.59
2024-05-09T23:28:09.338Z,99183.91
2024-05-09T23:33:31.593Z,99181.81
2024-05-09T23:38:53.532Z,99183.44
2024-05-09T23:44:15.442Z,99180.81
2024-05-09T23:49:37.381Z,99177.97
2024-05-09T23:54:59.655Z,99172.28
